createdAt,value
2018-07-20T00:00:59.505Z,64.10
2018-07-20T00:03:28.750Z,64.40
2018-07-20T00:05:57.992Z,64.40
2018-07-20T00:08:27.221Z,64.30
2018-07-20T00:10:56.499Z,64.10
2018-07-20T00:13:25.735Z,64.10
2018-07-20T00:15:54.924Z,63.80
2018-07-20T00:18:24.120Z,64.50
2018-07-20T00:20:53.365Z,64.80
2018-07-20T00:23:22.595Z,64.80
2018-07-20T00:25:51.808Z,65.00
2018-07-20T00:28:20.999Z,65.10
2018-07-20T00:30:50.206Z,65.20
2018-07-20T00:33:19.393Z,65.60
2018-07-20T00:35:48.602Z,65.90
2018-07-20T00:38:17.799Z,66.10
2018-07-20T00:40:47.046Z,66.30
2018-07-20T00:43:16.265Z,66.50
2018-07-20T00:45:45.508Z,66.90
2018-07-20T00:48:14.741Z,67.10
2018-07-20T00:50:44.018Z,67.00
2018-07-20T00:53:13.285Z,67.10
2018-07-20T00:55:42.505Z,66.80
2018-07-20T00:58:11.709Z,66.90
2018-07-20T01:00:40.936Z,66.80
2018-07-20T01:03:10.175Z,66.90
2018-07-20T01:05:39.396Z,67.40
2018-07-20T01:08:08.599Z,67.40
2018-07-20T01:10:37.852Z,67.70
2018-07-20T01:13:07.143Z,68.10
2018-07-20T01:15:36.354Z,68.60
2018-07-20T01:18:05.560Z,68.70
2018-07-20T01:20:34.816Z,68.90
2018-07-20T01:23:04.034Z,68.90
2018-07-20T01:25:33.241Z,68.90
2018-07-20T01:28:02.425Z,69.40
2018-07-20T01:30:31.605Z,69.20
2018-07-20T01:33:00.807Z,70.00
2018-07-20T01:35:30.042Z,69.50
2018-07-20T01:37:59.215Z,69.80
2018-07-20T01:40:28.411Z,69.50
2018-07-20T01:42:57.596Z,69.70
2018-07-20T01:45:26.807Z,69.90
2018-07-20T01:50:24.981Z,70.50
2018-07-20T01:52:54.217Z,70.70
2018-07-20T01:55:23.431Z,71.00
2018-07-20T01:57:52.647Z,71.30
2018-07-20T02:00:21.820Z,71.30
2018-07-20T02:02:51.019Z,71.80
2018-07-20T02:05:20.207Z,71.80
2018-07-20T02:07:49.420Z,72.00
2018-07-20T02:10:18.610Z,72.20
2018-07-20T02:12:47.860Z,72.80
2018-07-20T02:15:17.118Z,71.80
2018-07-20T02:17:46.325Z,71.70
2018-07-20T02:20:15.571Z,71.80
2018-07-20T02:22:44.796Z,72.20
2018-07-20T02:25:14.024Z,72.20
2018-07-20T02:27:43.285Z,73.00
2018-07-20T02:30:12.556Z,72.40
2018-07-20T02:32:41.822Z,73.00
2018-07-20T02:35:11.058Z,73.00
2018-07-20T02:37:40.288Z,72.90
2018-07-20T02:40:09.482Z,73.20
2018-07-20T02:42:38.701Z,73.50
2018-07-20T02:45:07.967Z,73.40
2018-07-20T02:47:37.189Z,73.00
2018-07-20T02:50:06.442Z,72.80
2018-07-20T02:52:35.678Z,72.60
2018-07-20T02:55:04.946Z,72.40
2018-07-20T02:57:34.168Z,72.50
2018-07-20T03:00:03.615Z,73.00
2018-07-20T03:02:32.877Z,73.50
2018-07-20T03:05:02.092Z,73.80
2018-07-20T03:07:31.301Z,74.30
2018-07-20T03:10:00.499Z,74.40
2018-07-20T03:12:29.710Z,74.30
2018-07-20T03:14:58.901Z,74.30
2018-07-20T03:17:28.097Z,74.30
2018-07-20T03:19:57.265Z,74.40
2018-07-20T03:22:26.494Z,74.50
2018-07-20T03:24:55.671Z,74.50
2018-07-20T03:27:24.896Z,74.50
2018-07-20T03:29:54.094Z,74.30
2018-07-20T03:32:23.288Z,74.10
2018-07-20T03:34:52.502Z,74.80
2018-07-20T03:37:21.701Z,74.60
2018-07-20T03:39:50.978Z,75.30
2018-07-20T03:42:20.208Z,75.80
2018-07-20T03:44:49.457Z,75.80
2018-07-20T03:47:18.793Z,76.30
2018-07-20T03:49:47.991Z,76.50
2018-07-20T03:52:17.232Z,76.10
2018-07-20T03:54:46.592Z,76.70
2018-07-20T03:57:15.780Z,77.40
2018-07-20T03:59:45.005Z,77.40
2018-07-20T04:02:14.283Z,77.40
2018-07-20T04:04:43.505Z,77.20
2018-07-20T04:07:12.708Z,76.90
2018-07-20T04:09:41.915Z,76.40
2018-07-20T04:12:11.060Z,76.00
2018-07-20T04:14:40.271Z,76.40
2018-07-20T04:17:09.463Z,75.70
2018-07-20T04:19:38.677Z,75.50
2018-07-20T04:22:07.893Z,75.50
2018-07-20T04:24:37.206Z,76.10
2018-07-20T04:27:06.405Z,75.40
2018-07-20T04:29:35.607Z,75.30
2018-07-20T04:32:04.800Z,75.20
2018-07-20T04:34:34.054Z,75.30
2018-07-20T04:37:03.255Z,75.30
2018-07-20T04:39:32.476Z,75.40
2018-07-20T04:42:01.689Z,75.30
2018-07-20T04:44:30.890Z,75.20
2018-07-20T04:47:00.116Z,75.10
2018-07-20T04:49:29.352Z,75.10
2018-07-20T04:51:58.551Z,75.10
2018-07-20T04:54:27.760Z,75.10
2018-07-20T04:56:56.976Z,75.30
2018-07-20T04:59:26.174Z,75.40
2018-07-20T05:01:55.352Z,75.30
2018-07-20T05:04:24.535Z,75.00
2018-07-20T05:06:53.809Z,74.60
2018-07-20T05:09:23.203Z,74.40
2018-07-20T05:11:52.436Z,74.30
2018-07-20T05:14:21.772Z,74.10
2018-07-20T05:16:51.213Z,74.00
2018-07-20T05:19:20.565Z,73.50
2018-07-20T05:21:49.777Z,73.60
2018-07-20T05:24:19.022Z,73.60
2018-07-20T05:26:48.268Z,73.40
2018-07-20T05:29:17.475Z,73.30
2018-07-20T05:31:46.694Z,73.20
2018-07-20T05:34:16.022Z,73.00
2018-07-20T05:36:45.307Z,72.80
2018-07-20T05:39:14.525Z,72.80
2018-07-20T05:41:43.752Z,72.70
2018-07-20T05:44:13.000Z,72.40
2018-07-20T05:46:42.227Z,72.30
2018-07-20T05:49:11.429Z,72.00
2018-07-20T05:51:40.664Z,71.60
2018-07-20T05:54:09.926Z,71.20
2018-07-20T05:56:39.195Z,71.00
2018-07-20T05:59:08.403Z,71.00
2018-07-20T06:01:37.717Z,71.10
2018-07-20T06:04:06.989Z,71.00
2018-07-20T06:06:36.167Z,70.70
2018-07-20T06:09:09.524Z,70.40
2018-07-20T06:11:38.843Z,70.50
2018-07-20T06:14:08.548Z,70.40
2018-07-20T06:16:37.853Z,70.00
2018-07-20T06:19:07.092Z,69.70
2018-07-20T06:21:36.306Z,69.50
2018-07-20T06:24:05.589Z,69.60
2018-07-20T06:26:34.876Z,69.00
2018-07-20T06:29:04.101Z,68.70
2018-07-20T06:31:33.399Z,69.20
2018-07-20T06:34:02.644Z,68.70
2018-07-20T06:36:31.860Z,68.50
2018-07-20T06:39:01.101Z,68.20
2018-07-20T06:41:30.415Z,67.90
2018-07-20T06:43:59.632Z,68.40
2018-07-20T06:46:28.873Z,67.20
2018-07-20T06:48:58.185Z,66.90
2018-07-20T06:51:27.389Z,66.70
2018-07-20T06:53:56.638Z,66.00
2018-07-20T06:56:25.892Z,66.50
2018-07-20T06:58:55.888Z,64.80
2018-07-20T07:01:25.141Z,64.30
2018-07-20T07:03:54.359Z,63.00
2018-07-20T07:06:23.905Z,62.60
2018-07-20T07:08:53.143Z,62.50
2018-07-20T07:11:22.378Z,61.60
2018-07-20T07:13:51.576Z,60.70
2018-07-20T07:16:20.784Z,59.90
2018-07-20T07:18:50.020Z,59.10
2018-07-20T07:21:19.206Z,58.40
2018-07-20T07:23:48.429Z,57.80
2018-07-20T07:26:17.713Z,58.40
2018-07-20T07:28:46.936Z,57.80
2018-07-20T07:31:16.120Z,57.10
2018-07-20T07:33:45.333Z,56.20
2018-07-20T07:36:14.528Z,55.40
2018-07-20T07:41:12.668Z,53.80
2018-07-20T07:43:41.946Z,53.20
2018-07-20T07:46:11.156Z,52.90
2018-07-20T07:48:40.372Z,52.50
2018-07-20T07:51:09.597Z,51.80
2018-07-20T07:53:38.815Z,51.30
2018-07-20T07:56:08.004Z,51.30
2018-07-20T07:58:37.173Z,51.10
2018-07-20T08:01:06.368Z,49.90
2018-07-20T08:03:35.686Z,49.20
2018-07-20T08:06:04.813Z,49.00
2018-07-20T08:08:34.018Z,47.30
2018-07-20T08:11:03.234Z,47.10
2018-07-20T08:13:32.429Z,46.90
2018-07-20T08:16:01.663Z,46.70
2018-07-20T08:18:30.856Z,46.00
2018-07-20T08:21:00.097Z,43.00
2018-07-20T08:23:29.370Z,40.70
2018-07-20T08:25:58.661Z,42.10
2018-07-20T08:28:27.913Z,42.00
2018-07-20T08:30:57.114Z,38.20
2018-07-20T08:33:26.313Z,38.00
2018-07-20T08:35:55.530Z,39.10
2018-07-20T08:38:24.740Z,39.60
2018-07-20T08:40:53.951Z,38.60
2018-07-20T08:43:23.149Z,39.10
2018-07-20T08:45:52.333Z,37.60
2018-07-20T08:48:21.515Z,37.20
2018-07-20T08:50:50.733Z,35.40
2018-07-20T08:53:19.946Z,35.90
2018-07-20T08:55:49.214Z,36.60
2018-07-20T08:58:18.452Z,36.60
2018-07-20T09:00:47.722Z,35.80
2018-07-20T09:03:17.032Z,36.50
2018-07-20T09:05:46.287Z,36.30
2018-07-20T09:08:15.607Z,34.00
2018-07-20T09:10:45.020Z,35.40
2018-07-20T09:13:14.276Z,34.30
2018-07-20T09:15:43.500Z,34.70
2018-07-20T09:18:12.742Z,34.60
2018-07-20T09:20:42.016Z,31.80
2018-07-20T09:23:11.296Z,30.60
2018-07-20T09:25:40.525Z,32.30
2018-07-20T09:28:09.743Z,33.40
2018-07-20T09:30:38.949Z,33.10
2018-07-20T09:33:08.282Z,34.70
2018-07-20T09:35:37.553Z,34.90
2018-07-20T09:38:06.843Z,33.60
2018-07-20T09:40:36.069Z,33.30
2018-07-20T09:43:05.283Z,33.30
2018-07-20T09:45:34.552Z,31.80
2018-07-20T09:48:03.752Z,31.60
2018-07-20T09:50:33.092Z,30.90
2018-07-20T09:53:02.303Z,31.10
2018-07-20T09:58:00.473Z,30.30
2018-07-20T10:00:35.108Z,30.50
2018-07-20T10:03:04.413Z,30.00
2018-07-20T10:05:33.735Z,30.60
2018-07-20T10:08:02.933Z,31.10
2018-07-20T10:10:32.186Z,31.00
2018-07-20T10:13:01.510Z,31.00
2018-07-20T10:15:30.787Z,30.60
2018-07-20T10:18:00.028Z,30.50
2018-07-20T10:20:29.252Z,30.80
2018-07-20T10:22:58.554Z,29.90
2018-07-20T10:25:27.829Z,29.60
2018-07-20T10:27:57.058Z,29.50
2018-07-20T10:30:26.485Z,29.60
2018-07-20T10:32:55.749Z,29.90
2018-07-20T10:36:28.307Z,29.40
2018-07-20T10:38:57.516Z,29.20
2018-07-20T10:41:26.960Z,29.50
2018-07-20T10:43:56.186Z,29.00
2018-07-20T10:46:25.602Z,28.80
2018-07-20T10:48:54.997Z,28.80
2018-07-20T10:51:24.221Z,27.50
2018-07-20T10:53:53.489Z,27.70
2018-07-20T10:56:22.717Z,28.60
2018-07-20T10:58:52.272Z,28.90
2018-07-20T11:01:21.611Z,28.60
2018-07-20T11:03:50.816Z,28.70
2018-07-20T11:08:49.092Z,28.50
2018-07-20T11:11:18.330Z,28.70
2018-07-20T11:13:47.686Z,28.30
2018-07-20T11:18:45.924Z,28.30
2018-07-20T11:21:15.224Z,28.50
2018-07-20T11:23:44.524Z,28.00
2018-07-20T11:26:13.848Z,28.00
2018-07-20T11:28:43.187Z,27.40
2018-07-20T11:31:12.402Z,27.30
2018-07-20T11:33:42.573Z,27.30
2018-07-20T11:36:11.795Z,27.30
2018-07-20T11:38:41.065Z,27.30
2018-07-20T11:41:10.288Z,26.60
2018-07-20T11:43:39.541Z,26.50
2018-07-20T11:46:08.798Z,26.60
2018-07-20T11:48:38.042Z,26.30
2018-07-20T11:51:07.474Z,26.20
2018-07-20T11:53:36.710Z,26.50
2018-07-20T11:56:06.015Z,26.60
2018-07-20T12:01:18.844Z,26.10
2018-07-20T12:03:48.175Z,26.30
2018-07-20T12:06:17.522Z,26.30
2018-07-20T12:08:46.876Z,26.60
2018-07-20T12:11:16.158Z,26.50
2018-07-20T12:13:45.472Z,26.50
2018-07-20T12:16:14.718Z,26.50
2018-07-20T12:18:43.969Z,26.30
2018-07-20T12:21:13.194Z,26.20
2018-07-20T12:23:42.419Z,26.10
2018-07-20T12:26:11.668Z,25.80
2018-07-20T12:28:40.900Z,25.50
2018-07-20T12:31:10.200Z,25.60
2018-07-20T12:33:39.417Z,24.80
2018-07-20T12:36:08.624Z,25.20
2018-07-20T12:38:37.844Z,25.50
2018-07-20T12:41:07.058Z,24.60
2018-07-20T12:43:36.319Z,25.60
2018-07-20T12:46:05.585Z,25.20
2018-07-20T12:48:34.823Z,25.80
2018-07-20T12:51:04.392Z,26.00
2018-07-20T12:53:33.731Z,26.10
2018-07-20T12:56:02.925Z,25.80
2018-07-20T12:58:32.163Z,25.70
2018-07-20T13:01:01.557Z,25.70
2018-07-20T13:03:30.756Z,25.60
2018-07-20T13:05:59.953Z,25.60
2018-07-20T13:08:29.252Z,25.20
2018-07-20T13:10:58.572Z,25.60
2018-07-20T13:13:27.757Z,25.90
2018-07-20T13:15:56.980Z,25.10
2018-07-20T13:18:26.384Z,25.20
2018-07-20T13:20:55.609Z,25.60
2018-07-20T13:23:24.825Z,25.70
2018-07-20T13:25:54.047Z,26.40
2018-07-20T13:28:23.241Z,25.80
2018-07-20T13:30:52.499Z,25.40
2018-07-20T13:33:21.704Z,25.10
2018-07-20T13:35:50.927Z,25.20
2018-07-20T13:38:20.168Z,24.90
2018-07-20T13:40:49.372Z,25.10
2018-07-20T13:43:18.641Z,25.10
2018-07-20T13:45:47.833Z,25.10
2018-07-20T13:50:45.977Z,25.30
2018-07-20T13:53:15.329Z,25.30
2018-07-20T13:55:44.519Z,25.50
2018-07-20T13:58:13.731Z,25.50
2018-07-20T14:00:42.956Z,25.70
2018-07-20T14:03:12.270Z,25.80
2018-07-20T14:05:41.466Z,25.30
2018-07-20T14:08:10.664Z,25.50
2018-07-20T14:10:39.933Z,25.40
2018-07-20T14:13:09.171Z,25.90
2018-07-20T14:15:38.716Z,26.50
2018-07-20T14:18:07.986Z,26.40
2018-07-20T14:20:37.244Z,26.20
2018-07-20T14:23:06.488Z,26.40
2018-07-20T14:25:35.710Z,26.50
2018-07-20T14:28:04.941Z,26.60
2018-07-20T14:30:34.195Z,26.70
2018-07-20T14:33:03.437Z,27.00
2018-07-20T14:35:32.637Z,27.10
2018-07-20T14:38:01.876Z,27.20
2018-07-20T14:40:31.052Z,27.10
2018-07-20T14:43:00.430Z,26.80
2018-07-20T14:45:29.669Z,26.60
2018-07-20T14:50:28.069Z,26.30
2018-07-20T14:52:57.351Z,26.40
2018-07-20T14:55:26.590Z,26.30
2018-07-20T14:57:55.892Z,26.20
2018-07-20T15:00:25.153Z,25.90
2018-07-20T15:49:12.470Z,26.00
2018-07-20T16:05:23.962Z,26.90
2018-07-20T16:08:00.328Z,28.00
2018-07-20T16:11:11.759Z,28.00
2018-07-20T16:13:44.323Z,28.10
2018-07-20T16:16:13.901Z,28.60
2018-07-20T16:18:44.720Z,28.40
2018-07-20T16:21:16.345Z,28.60
2018-07-20T16:30:44.974Z,29.60
2018-07-20T16:33:14.201Z,29.80
2018-07-20T16:35:43.531Z,29.90
2018-07-20T16:38:12.718Z,30.00
2018-07-20T16:40:41.933Z,30.10
2018-07-20T16:43:11.159Z,30.20
2018-07-20T16:45:40.788Z,30.30
2018-07-20T16:48:10.106Z,30.30
2018-07-20T16:50:39.316Z,30.40
2018-07-20T16:53:08.607Z,30.40
2018-07-20T16:55:37.890Z,30.20
2018-07-20T16:58:07.208Z,29.90
2018-07-20T17:00:36.436Z,29.90
2018-07-20T17:03:05.709Z,30.00
2018-07-20T17:05:34.925Z,30.00
2018-07-20T17:08:04.215Z,30.00
2018-07-20T17:10:33.482Z,29.90
2018-07-20T17:13:02.716Z,29.90
2018-07-20T17:15:31.944Z,30.10
2018-07-20T17:18:01.161Z,30.00
2018-07-20T17:20:30.382Z,30.00
2018-07-20T17:22:59.628Z,30.00
2018-07-20T17:25:28.894Z,30.00
2018-07-20T17:27:58.146Z,30.00
2018-07-20T17:30:27.313Z,30.20
2018-07-20T17:32:56.498Z,30.00
2018-07-20T17:35:25.743Z,30.00
2018-07-20T17:37:54.979Z,30.00
2018-07-20T17:40:24.194Z,30.00
2018-07-20T17:42:53.384Z,30.00
2018-07-20T17:45:22.609Z,29.90
2018-07-20T17:47:51.798Z,30.10
2018-07-20T17:50:20.999Z,30.10
2018-07-20T17:52:50.201Z,30.70
2018-07-20T17:55:19.408Z,30.30
2018-07-20T17:57:48.644Z,30.20
2018-07-20T18:00:17.977Z,30.40
2018-07-20T18:02:47.197Z,30.30
2018-07-20T18:05:16.461Z,30.40
2018-07-20T18:07:45.696Z,30.00
2018-07-20T18:10:14.927Z,30.00
2018-07-20T18:12:47.072Z,30.00
2018-07-20T18:15:16.400Z,30.30
2018-07-20T18:17:45.761Z,30.60
2018-07-20T18:20:14.979Z,30.70
2018-07-20T18:22:44.224Z,30.70
2018-07-20T18:25:14.448Z,30.80
2018-07-20T18:27:43.688Z,30.90
2018-07-20T18:30:12.932Z,31.10
2018-07-20T18:32:42.406Z,31.30
2018-07-20T18:35:11.645Z,31.50
2018-07-20T18:37:41.140Z,31.70
2018-07-20T18:40:10.505Z,31.90
2018-07-20T18:42:39.735Z,32.20
2018-07-20T18:45:09.474Z,32.40
2018-07-20T18:47:38.761Z,32.50
2018-07-20T18:50:09.525Z,32.60
2018-07-20T18:52:38.869Z,32.90
2018-07-20T18:55:08.473Z,33.00
2018-07-20T18:57:37.706Z,33.20
2018-07-20T19:00:07.589Z,33.40
2018-07-20T19:02:36.840Z,33.50
2018-07-20T19:05:06.049Z,33.80
2018-07-20T19:07:35.391Z,34.10
2018-07-20T19:10:04.612Z,34.20
2018-07-20T19:15:02.809Z,34.40
2018-07-20T19:17:32.025Z,34.50
2018-07-20T19:20:01.278Z,34.80
2018-07-20T19:22:30.622Z,35.00
2018-07-20T19:24:59.805Z,35.10
2018-07-20T19:27:29.053Z,35.60
2018-07-20T19:29:58.258Z,35.60
2018-07-20T19:32:27.529Z,35.80
2018-07-20T19:34:56.720Z,36.00
2018-07-20T19:37:25.917Z,36.10
2018-07-20T19:39:55.113Z,36.20
2018-07-20T19:42:24.376Z,36.30
2018-07-20T19:44:53.580Z,36.40
2018-07-20T19:47:22.849Z,36.50
2018-07-20T19:49:52.057Z,36.50
2018-07-20T19:52:21.414Z,36.80
2018-07-20T19:54:50.639Z,36.90
2018-07-20T19:57:19.868Z,37.10
2018-07-20T19:59:49.080Z,37.10
2018-07-20T20:02:18.339Z,37.50
2018-07-20T20:04:47.543Z,37.60
2018-07-20T20:07:16.800Z,37.80
2018-07-20T20:09:46.168Z,37.60
2018-07-20T20:12:15.859Z,38.10
2018-07-20T20:14:45.142Z,38.40
2018-07-20T20:17:14.438Z,38.30
2018-07-20T20:19:43.672Z,38.40
2018-07-20T20:22:12.972Z,38.70
2018-07-20T20:24:42.238Z,38.80
2018-07-20T20:27:11.461Z,38.90
2018-07-20T20:29:40.828Z,39.20
2018-07-20T20:32:10.497Z,39.50
2018-07-20T20:34:39.734Z,39.50
2018-07-20T20:37:08.957Z,39.60
2018-07-20T20:39:38.248Z,39.80
2018-07-20T20:42:07.490Z,40.00
2018-07-20T20:44:36.724Z,39.90
2018-07-20T20:47:05.960Z,40.10
2018-07-20T20:49:35.196Z,40.10
2018-07-20T20:52:04.410Z,40.30
2018-07-20T20:54:33.678Z,40.50
2018-07-20T20:57:02.958Z,40.70
2018-07-20T20:59:32.175Z,40.70
2018-07-20T21:02:01.401Z,41.00
2018-07-20T21:04:30.704Z,41.20
2018-07-20T21:06:59.900Z,41.00
2018-07-20T21:09:29.152Z,41.30
2018-07-20T21:11:58.388Z,41.50
2018-07-20T21:14:27.582Z,41.40
2018-07-20T21:19:25.745Z,41.80
2018-07-20T21:21:54.914Z,41.70
2018-07-20T21:24:24.112Z,41.90
2018-07-20T21:26:53.357Z,42.00
2018-07-20T21:29:22.562Z,41.90
2018-07-20T21:31:51.774Z,41.90
2018-07-20T21:34:21.009Z,42.10
2018-07-20T21:36:50.204Z,42.10
2018-07-20T21:39:19.467Z,42.00
2018-07-20T21:41:48.668Z,42.60
2018-07-20T21:44:17.965Z,43.50
2018-07-20T21:46:47.204Z,44.70
2018-07-20T21:49:16.467Z,45.50
2018-07-20T21:51:45.767Z,45.90
2018-07-20T21:54:15.063Z,45.90
2018-07-20T21:56:44.316Z,45.90
2018-07-20T21:59:13.547Z,45.90
2018-07-20T22:01:42.835Z,45.70
2018-07-20T22:04:12.048Z,45.90
2018-07-20T22:06:41.234Z,45.60
2018-07-20T22:09:11.553Z,45.30
2018-07-20T22:11:40.823Z,45.20
2018-07-20T22:14:10.095Z,45.50
2018-07-20T22:16:39.340Z,45.50
2018-07-20T22:19:08.584Z,47.20
2018-07-20T22:21:37.825Z,48.30
2018-07-20T22:24:07.052Z,49.90
2018-07-20T22:26:36.326Z,51.20
2018-07-20T22:29:05.521Z,51.90
2018-07-20T22:31:34.734Z,52.00
2018-07-20T22:34:03.974Z,51.90
2018-07-20T22:36:33.582Z,51.70
2018-07-20T22:39:02.799Z,51.80
2018-07-20T22:41:32.037Z,51.70
2018-07-20T22:44:01.227Z,52.00
2018-07-20T22:46:30.480Z,52.50
2018-07-20T22:48:59.660Z,52.80
2018-07-20T22:51:28.942Z,53.10
2018-07-20T22:53:58.219Z,53.20
2018-07-20T22:56:27.493Z,53.60
2018-07-20T22:58:56.727Z,53.50
2018-07-20T23:01:25.935Z,54.00
2018-07-20T23:03:55.120Z,53.90
2018-07-20T23:06:24.356Z,54.30
2018-07-20T23:08:53.556Z,54.10
2018-07-20T23:11:22.861Z,54.50
2018-07-20T23:13:52.104Z,54.80
2018-07-20T23:16:21.341Z,55.50
2018-07-20T23:18:50.584Z,55.80
2018-07-20T23:21:19.880Z,56.40
2018-07-20T23:23:49.181Z,56.50
2018-07-20T23:26:18.415Z,56.60
2018-07-20T23:28:47.630Z,57.00
2018-07-20T23:31:16.929Z,56.90
2018-07-20T23:33:46.146Z,56.90
2018-07-20T23:36:15.462Z,57.10
2018-07-20T23:38:44.720Z,57.00
2018-07-20T23:43:42.999Z,57.10
2018-07-20T23:46:12.232Z,56.90
2018-07-20T23:48:41.464Z,56.90
2018-07-20T23:51:10.697Z,56.90
2018-07-20T23:53:39.895Z,56.90
2018-07-20T23:56:09.156Z,57.00
2018-07-20T23:58:38.393Z,57.40
